sensor_id;sensor_type;location;lat;lon;timestamp;P1;durP1;ratioP1;P2;durP2;ratioP2
20181;SDS011;10250;50.756;6.172;2023-10-08T00:00:42;12.37;;;3.20;;
20181;SDS011;10250;50.756;6.172;2023-10-08T00:02:49;12.60;;;2.97;;
20181;SDS011;10250;50.756;6.172;2023-10-08T00:04:49;14.63;;;3.40;;
20181;SDS011;10250;50.756;6.172;2023-10-08T00:06:50;13.57;;;3.10;;
20181;SDS011;10250;50.756;6.172;2023-10-08T00:08:52;11.80;;;3.10;;
20181;SDS011;10250;50.756;6.172;2023-10-08T00:10:59;13.50;;;3.07;;
20181;SDS011;10250;50.756;6.172;2023-10-08T00:13:07;16.70;;;3.33;;
20181;SDS011;10250;50.756;6.172;2023-10-08T00:15:09;12.37;;;3.57;;
20181;SDS011;10250;50.756;6.172;2023-10-08T00:17:13;11.53;;;2.90;;
20181;SDS011;10250;50.756;6.172;2023-10-08T00:19:14;14.00;;;3.37;;
20181;SDS011;10250;50.756;6.172;2023-10-08T00:21:15;12.90;;;3.40;;
20181;SDS011;10250;50.756;6.172;2023-10-08T00:23:16;16.07;;;3.97;;
20181;SDS011;10250;50.756;6.172;2023-10-08T00:25:17;11.03;;;2.90;;
20181;SDS011;10250;50.756;6.172;2023-10-08T00:27:18;14.37;;;3.53;;
20181;SDS011;10250;50.756;6.172;2023-10-08T00:29:20;12.50;;;2.83;;
20181;SDS011;10250;50.756;6.172;2023-10-08T00:31:21;11.20;;;2.90;;
20181;SDS011;10250;50.756;6.172;2023-10-08T00:33:26;14.00;;;3.03;;
20181;SDS011;10250;50.756;6.172;2023-10-08T00:35:26;12.70;;;3.10;;
20181;SDS011;10250;50.756;6.172;2023-10-08T00:37:27;16.73;;;3.13;;
20181;SDS011;10250;50.756;6.172;2023-10-08T00:39:29;13.37;;;3.20;;
20181;SDS011;10250;50.756;6.172;2023-10-08T00:41:34;12.47;;;3.30;;
20181;SDS011;10250;50.756;6.172;2023-10-08T00:43:38;15.67;;;3.33;;
20181;SDS011;10250;50.756;6.172;2023-10-08T00:45:39;12.90;;;3.33;;
20181;SDS011;10250;50.756;6.172;2023-10-08T00:47:46;12.67;;;3.33;;
20181;SDS011;10250;50.756;6.172;2023-10-08T00:49:47;13.03;;;2.97;;
20181;SDS011;10250;50.756;6.172;2023-10-08T00:51:48;13.20;;;2.77;;
20181;SDS011;10250;50.756;6.172;2023-10-08T00:54:01;16.23;;;3.33;;
20181;SDS011;10250;50.756;6.172;2023-10-08T00:56:07;11.63;;;3.10;;
20181;SDS011;10250;50.756;6.172;2023-10-08T00:58:14;15.87;;;3.20;;
20181;SDS011;10250;50.756;6.172;2023-10-08T01:00:24;12.80;;;3.27;;
20181;SDS011;10250;50.756;6.172;2023-10-08T01:02:33;13.93;;;3.40;;
20181;SDS011;10250;50.756;6.172;2023-10-08T01:04:46;12.13;;;3.30;;
20181;SDS011;10250;50.756;6.172;2023-10-08T01:06:46;11.73;;;3.10;;
20181;SDS011;10250;50.756;6.172;2023-10-08T01:08:49;14.57;;;3.40;;
20181;SDS011;10250;50.756;6.172;2023-10-08T01:10:54;11.43;;;2.73;;
20181;SDS011;10250;50.756;6.172;2023-10-08T01:13:00;14.73;;;2.93;;
20181;SDS011;10250;50.756;6.172;2023-10-08T01:15:01;12.83;;;3.00;;
20181;SDS011;10250;50.756;6.172;2023-10-08T01:17:16;15.00;;;3.00;;
20181;SDS011;10250;50.756;6.172;2023-10-08T01:19:19;12.63;;;3.27;;
20181;SDS011;10250;50.756;6.172;2023-10-08T01:21:20;12.43;;;3.30;;
20181;SDS011;10250;50.756;6.172;2023-10-08T01:23:34;14.30;;;3.23;;
20181;SDS011;10250;50.756;6.172;2023-10-08T01:25:34;13.07;;;3.00;;
20181;SDS011;10250;50.756;6.172;2023-10-08T01:27:35;13.87;;;3.27;;
20181;SDS011;10250;50.756;6.172;2023-10-08T01:29:38;11.67;;;3.03;;
20181;SDS011;10250;50.756;6.172;2023-10-08T01:31:39;13.90;;;3.40;;
20181;SDS011;10250;50.756;6.172;2023-10-08T01:33:40;13.70;;;3.07;;
20181;SDS011;10250;50.756;6.172;2023-10-08T01:35:49;13.90;;;3.40;;
20181;SDS011;10250;50.756;6.172;2023-10-08T01:37:50;12.87;;;2.90;;
20181;SDS011;10250;50.756;6.172;2023-10-08T01:39:51;13.03;;;2.93;;
20181;SDS011;10250;50.756;6.172;2023-10-08T01:41:51;12.70;;;3.57;;
20181;SDS011;10250;50.756;6.172;2023-10-08T01:43:52;12.87;;;3.17;;
20181;SDS011;10250;50.756;6.172;2023-10-08T01:45:53;11.10;;;3.07;;
20181;SDS011;10250;50.756;6.172;2023-10-08T01:47:53;12.63;;;3.10;;
20181;SDS011;10250;50.756;6.172;2023-10-08T01:49:54;14.73;;;3.30;;
20181;SDS011;10250;50.756;6.172;2023-10-08T01:52:05;13.50;;;3.10;;
20181;SDS011;10250;50.756;6.172;2023-10-08T01:54:13;15.13;;;3.27;;
20181;SDS011;10250;50.756;6.172;2023-10-08T01:56:14;12.03;;;3.07;;
20181;SDS011;10250;50.756;6.172;2023-10-08T01:58:16;12.93;;;3.17;;
20181;SDS011;10250;50.756;6.172;2023-10-08T02:00:17;14.23;;;3.30;;
20181;SDS011;10250;50.756;6.172;2023-10-08T02:02:22;11.63;;;3.13;;
20181;SDS011;10250;50.756;6.172;2023-10-08T02:04:22;12.50;;;3.20;;
20181;SDS011;10250;50.756;6.172;2023-10-08T02:06:23;14.77;;;3.60;;
20181;SDS011;10250;50.756;6.172;2023-10-08T02:08:24;14.03;;;3.10;;
20181;SDS011;10250;50.756;6.172;2023-10-08T02:10:26;12.50;;;3.10;;
20181;SDS011;10250;50.756;6.172;2023-10-08T02:12:26;14.80;;;3.40;;
20181;SDS011;10250;50.756;6.172;2023-10-08T02:14:27;13.40;;;3.53;;
20181;SDS011;10250;50.756;6.172;2023-10-08T02:16:31;12.13;;;2.87;;
20181;SDS011;10250;50.756;6.172;2023-10-08T02:18:33;11.43;;;3.20;;
20181;SDS011;10250;50.756;6.172;2023-10-08T02:20:35;14.53;;;3.50;;
20181;SDS011;10250;50.756;6.172;2023-10-08T02:22:35;14.10;;;3.50;;
20181;SDS011;10250;50.756;6.172;2023-10-08T02:24:36;15.23;;;3.40;;
20181;SDS011;10250;50.756;6.172;2023-10-08T02:26:38;13.20;;;3.40;;
20181;SDS011;10250;50.756;6.172;2023-10-08T02:28:39;10.47;;;2.77;;
20181;SDS011;10250;50.756;6.172;2023-10-08T02:30:39;12.83;;;3.23;;
20181;SDS011;10250;50.756;6.172;2023-10-08T02:32:41;12.40;;;3.13;;
20181;SDS011;10250;50.756;6.172;2023-10-08T02:34:46;13.37;;;2.90;;
20181;SDS011;10250;50.756;6.172;2023-10-08T02:36:47;13.87;;;3.17;;
20181;SDS011;10250;50.756;6.172;2023-10-08T02:38:47;12.53;;;3.07;;
20181;SDS011;10250;50.756;6.172;2023-10-08T02:40:49;16.53;;;3.73;;
20181;SDS011;10250;50.756;6.172;2023-10-08T02:42:54;17.20;;;3.47;;
20181;SDS011;10250;50.756;6.172;2023-10-08T02:44:58;13.47;;;3.50;;
20181;SDS011;10250;50.756;6.172;2023-10-08T02:47:01;14.70;;;3.27;;
20181;SDS011;10250;50.756;6.172;2023-10-08T02:49:01;12.27;;;3.20;;
20181;SDS011;10250;50.756;6.172;2023-10-08T02:51:03;14.37;;;3.20;;
20181;SDS011;10250;50.756;6.172;2023-10-08T02:53:14;13.30;;;3.30;;
20181;SDS011;10250;50.756;6.172;2023-10-08T02:55:25;14.73;;;3.00;;
20181;SDS011;10250;50.756;6.172;2023-10-08T02:57:34;15.87;;;3.63;;
20181;SDS011;10250;50.756;6.172;2023-10-08T02:59:35;10.83;;;2.87;;
20181;SDS011;10250;50.756;6.172;2023-10-08T03:01:42;11.90;;;3.37;;
20181;SDS011;10250;50.756;6.172;2023-10-08T03:03:43;13.93;;;3.43;;
20181;SDS011;10250;50.756;6.172;2023-10-08T03:05:49;15.13;;;3.30;;
20181;SDS011;10250;50.756;6.172;2023-10-08T03:07:52;14.47;;;3.40;;
20181;SDS011;10250;50.756;6.172;2023-10-08T03:09:52;16.13;;;3.90;;
20181;SDS011;10250;50.756;6.172;2023-10-08T03:12:16;12.87;;;3.07;;
20181;SDS011;10250;50.756;6.172;2023-10-08T03:14:18;13.87;;;4.00;;
20181;SDS011;10250;50.756;6.172;2023-10-08T03:16:22;14.17;;;3.13;;
20181;SDS011;10250;50.756;6.172;2023-10-08T03:18:28;12.83;;;3.30;;
20181;SDS011;10250;50.756;6.172;2023-10-08T03:20:36;14.30;;;3.60;;
20181;SDS011;10250;50.756;6.172;2023-10-08T03:22:40;15.30;;;4.00;;
20181;SDS011;10250;50.756;6.172;2023-10-08T03:24:45;13.67;;;3.70;;
20181;SDS011;10250;50.756;6.172;2023-10-08T03:26:48;13.80;;;3.63;;
20181;SDS011;10250;50.756;6.172;2023-10-08T03:28:55;12.93;;;3.10;;
20181;SDS011;10250;50.756;6.172;2023-10-08T03:30:57;14.13;;;3.43;;
20181;SDS011;10250;50.756;6.172;2023-10-08T03:33:16;11.93;;;2.97;;
20181;SDS011;10250;50.756;6.172;2023-10-08T03:35:22;16.37;;;3.50;;
20181;SDS011;10250;50.756;6.172;2023-10-08T03:37:27;14.37;;;3.87;;
20181;SDS011;10250;50.756;6.172;2023-10-08T03:39:40;12.83;;;3.37;;
20181;SDS011;10250;50.756;6.172;2023-10-08T03:41:59;13.83;;;3.20;;
20181;SDS011;10250;50.756;6.172;2023-10-08T03:44:08;15.27;;;3.63;;
20181;SDS011;10250;50.756;6.172;2023-10-08T03:46:16;12.77;;;3.23;;
20181;SDS011;10250;50.756;6.172;2023-10-08T03:48:17;14.17;;;3.87;;
20181;SDS011;10250;50.756;6.172;2023-10-08T03:50:20;13.23;;;3.20;;
20181;SDS011;10250;50.756;6.172;2023-10-08T03:52:32;13.10;;;3.13;;
20181;SDS011;10250;50.756;6.172;2023-10-08T03:54:37;13.03;;;3.57;;
20181;SDS011;10250;50.756;6.172;2023-10-08T03:56:43;17.30;;;3.70;;
20181;SDS011;10250;50.756;6.172;2023-10-08T03:58:48;15.70;;;3.90;;
20181;SDS011;10250;50.756;6.172;2023-10-08T04:00:49;15.40;;;3.50;;
20181;SDS011;10250;50.756;6.172;2023-10-08T04:02:49;12.53;;;3.27;;
20181;SDS011;10250;50.756;6.172;2023-10-08T04:05:01;13.73;;;3.50;;
20181;SDS011;10250;50.756;6.172;2023-10-08T04:07:18;13.57;;;3.30;;
20181;SDS011;10250;50.756;6.172;2023-10-08T04:09:28;14.70;;;3.77;;
20181;SDS011;10250;50.756;6.172;2023-10-08T04:11:31;15.37;;;3.57;;
20181;SDS011;10250;50.756;6.172;2023-10-08T04:13:35;14.20;;;3.50;;
20181;SDS011;10250;50.756;6.172;2023-10-08T04:15:44;15.40;;;3.20;;
20181;SDS011;10250;50.756;6.172;2023-10-08T04:17:45;13.47;;;3.20;;
20181;SDS011;10250;50.756;6.172;2023-10-08T04:19:51;14.10;;;3.37;;
20181;SDS011;10250;50.756;6.172;2023-10-08T04:21:51;13.70;;;3.30;;
20181;SDS011;10250;50.756;6.172;2023-10-08T04:23:55;16.87;;;3.53;;
20181;SDS011;10250;50.756;6.172;2023-10-08T04:25:57;14.00;;;3.47;;
20181;SDS011;10250;50.756;6.172;2023-10-08T04:27:59;13.50;;;3.40;;
20181;SDS011;10250;50.756;6.172;2023-10-08T04:30:00;13.20;;;3.37;;
20181;SDS011;10250;50.756;6.172;2023-10-08T04:32:00;13.83;;;3.43;;
20181;SDS011;10250;50.756;6.172;2023-10-08T04:34:02;12.10;;;3.23;;
20181;SDS011;10250;50.756;6.172;2023-10-08T04:36:09;14.83;;;3.57;;
20181;SDS011;10250;50.756;6.172;2023-10-08T04:38:19;14.43;;;3.87;;
20181;SDS011;10250;50.756;6.172;2023-10-08T04:40:21;14.50;;;3.40;;
20181;SDS011;10250;50.756;6.172;2023-10-08T04:42:24;14.07;;;3.57;;
20181;SDS011;10250;50.756;6.172;2023-10-08T04:44:26;13.67;;;3.53;;
20181;SDS011;10250;50.756;6.172;2023-10-08T04:46:26;14.50;;;3.27;;
20181;SDS011;10250;50.756;6.172;2023-10-08T04:48:39;14.07;;;3.50;;
20181;SDS011;10250;50.756;6.172;2023-10-08T04:50:43;13.03;;;3.30;;
20181;SDS011;10250;50.756;6.172;2023-10-08T04:52:44;13.50;;;3.30;;
20181;SDS011;10250;50.756;6.172;2023-10-08T04:54:58;13.90;;;3.50;;
20181;SDS011;10250;50.756;6.172;2023-10-08T04:57:07;12.87;;;3.50;;
20181;SDS011;10250;50.756;6.172;2023-10-08T04:59:15;12.03;;;3.43;;
20181;SDS011;10250;50.756;6.172;2023-10-08T05:01:22;14.73;;;3.50;;
20181;SDS011;10250;50.756;6.172;2023-10-08T05:03:38;12.53;;;3.13;;
20181;SDS011;10250;50.756;6.172;2023-10-08T05:05:49;13.43;;;3.37;;
20181;SDS011;10250;50.756;6.172;2023-10-08T05:08:08;15.60;;;3.40;;
20181;SDS011;10250;50.756;6.172;2023-10-08T05:10:28;13.50;;;3.73;;
20181;SDS011;10250;50.756;6.172;2023-10-08T05:12:29;11.80;;;3.07;;
20181;SDS011;10250;50.756;6.172;2023-10-08T05:14:32;14.60;;;3.43;;
20181;SDS011;10250;50.756;6.172;2023-10-08T05:16:33;15.17;;;3.43;;
20181;SDS011;10250;50.756;6.172;2023-10-08T05:18:43;13.03;;;3.27;;
20181;SDS011;10250;50.756;6.172;2023-10-08T05:21:03;12.80;;;3.17;;
20181;SDS011;10250;50.756;6.172;2023-10-08T05:23:23;13.83;;;3.37;;
20181;SDS011;10250;50.756;6.172;2023-10-08T05:25:24;13.70;;;3.43;;
20181;SDS011;10250;50.756;6.172;2023-10-08T05:27:40;14.87;;;3.60;;
20181;SDS011;10250;50.756;6.172;2023-10-08T05:29:49;13.67;;;3.23;;
20181;SDS011;10250;50.756;6.172;2023-10-08T05:32:11;11.00;;;3.10;;
20181;SDS011;10250;50.756;6.172;2023-10-08T05:34:38;14.07;;;3.40;;
20181;SDS011;10250;50.756;6.172;2023-10-08T05:37:05;14.37;;;3.60;;
20181;SDS011;10250;50.756;6.172;2023-10-08T05:39:07;14.60;;;3.50;;
20181;SDS011;10250;50.756;6.172;2023-10-08T05:41:27;14.13;;;3.47;;
20181;SDS011;10250;50.756;6.172;2023-10-08T05:43:37;13.50;;;3.43;;
20181;SDS011;10250;50.756;6.172;2023-10-08T05:45:38;14.60;;;3.67;;
20181;SDS011;10250;50.756;6.172;2023-10-08T05:47:38;14.17;;;4.07;;
20181;SDS011;10250;50.756;6.172;2023-10-08T05:49:41;13.50;;;3.40;;
20181;SDS011;10250;50.756;6.172;2023-10-08T05:51:54;12.90;;;3.30;;
20181;SDS011;10250;50.756;6.172;2023-10-08T05:53:55;14.80;;;3.53;;
20181;SDS011;10250;50.756;6.172;2023-10-08T05:56:03;14.40;;;3.50;;
20181;SDS011;10250;50.756;6.172;2023-10-08T05:58:16;11.23;;;3.33;;
20181;SDS011;10250;50.756;6.172;2023-10-08T06:00:19;14.17;;;3.60;;
20181;SDS011;10250;50.756;6.172;2023-10-08T06:02:35;15.83;;;4.20;;
20181;SDS011;10250;50.756;6.172;2023-10-08T06:04:38;14.73;;;3.50;;
20181;SDS011;10250;50.756;6.172;2023-10-08T06:06:53;14.80;;;3.60;;
20181;SDS011;10250;50.756;6.172;2023-10-08T06:09:12;14.13;;;3.43;;
20181;SDS011;10250;50.756;6.172;2023-10-08T06:11:13;14.23;;;4.00;;
20181;SDS011;10250;50.756;6.172;2023-10-08T06:13:27;16.27;;;4.00;;
20181;SDS011;10250;50.756;6.172;2023-10-08T06:17:51;14.27;;;3.50;;
20181;SDS011;10250;50.756;6.172;2023-10-08T06:20:04;16.70;;;4.27;;
20181;SDS011;10250;50.756;6.172;2023-10-08T06:22:09;16.33;;;3.97;;
20181;SDS011;10250;50.756;6.172;2023-10-08T06:24:10;16.30;;;3.70;;
20181;SDS011;10250;50.756;6.172;2023-10-08T06:26:11;15.40;;;3.93;;
20181;SDS011;10250;50.756;6.172;2023-10-08T06:30:14;15.47;;;3.50;;
20181;SDS011;10250;50.756;6.172;2023-10-08T06:32:16;11.53;;;2.93;;
20181;SDS011;10250;50.756;6.172;2023-10-08T06:34:21;13.17;;;3.30;;
20181;SDS011;10250;50.756;6.172;2023-10-08T06:36:23;15.37;;;4.07;;
20181;SDS011;10250;50.756;6.172;2023-10-08T06:38:25;14.23;;;3.37;;
20181;SDS011;10250;50.756;6.172;2023-10-08T06:40:27;15.50;;;3.87;;
20181;SDS011;10250;50.756;6.172;2023-10-08T06:42:53;13.00;;;3.50;;
20181;SDS011;10250;50.756;6.172;2023-10-08T06:44:57;13.50;;;3.53;;
20181;SDS011;10250;50.756;6.172;2023-10-08T06:46:58;12.83;;;3.43;;
20181;SDS011;10250;50.756;6.172;2023-10-08T06:48:59;16.60;;;4.03;;
20181;SDS011;10250;50.756;6.172;2023-10-08T06:51:00;14.53;;;3.63;;
20181;SDS011;10250;50.756;6.172;2023-10-08T06:53:07;14.40;;;4.13;;
20181;SDS011;10250;50.756;6.172;2023-10-08T06:55:08;15.90;;;3.67;;
20181;SDS011;10250;50.756;6.172;2023-10-08T06:57:11;14.50;;;4.37;;
20181;SDS011;10250;50.756;6.172;2023-10-08T06:59:13;14.03;;;3.20;;
20181;SDS011;10250;50.756;6.172;2023-10-08T07:01:15;13.17;;;3.70;;
20181;SDS011;10250;50.756;6.172;2023-10-08T07:03:25;15.40;;;4.10;;
20181;SDS011;10250;50.756;6.172;2023-10-08T07:05:26;13.70;;;3.47;;
20181;SDS011;10250;50.756;6.172;2023-10-08T07:07:29;12.70;;;3.60;;
20181;SDS011;10250;50.756;6.172;2023-10-08T07:09:32;14.50;;;3.40;;
20181;SDS011;10250;50.756;6.172;2023-10-08T07:11:36;14.47;;;4.10;;
20181;SDS011;10250;50.756;6.172;2023-10-08T07:13:39;12.67;;;3.67;;
20181;SDS011;10250;50.756;6.172;2023-10-08T07:15:43;14.87;;;3.80;;
20181;SDS011;10250;50.756;6.172;2023-10-08T07:17:45;14.50;;;4.03;;
20181;SDS011;10250;50.756;6.172;2023-10-08T07:19:45;15.97;;;4.37;;
20181;SDS011;10250;50.756;6.172;2023-10-08T07:21:50;15.07;;;3.60;;
20181;SDS011;10250;50.756;6.172;2023-10-08T07:23:55;16.37;;;3.73;;
20181;SDS011;10250;50.756;6.172;2023-10-08T07:26:00;14.40;;;3.93;;
20181;SDS011;10250;50.756;6.172;2023-10-08T07:28:11;12.70;;;3.60;;
20181;SDS011;10250;50.756;6.172;2023-10-08T07:30:12;15.37;;;3.30;;
20181;SDS011;10250;50.756;6.172;2023-10-08T07:32:13;15.50;;;4.07;;
20181;SDS011;10250;50.756;6.172;2023-10-08T07:34:19;15.27;;;3.53;;
20181;SDS011;10250;50.756;6.172;2023-10-08T07:36:26;14.77;;;3.97;;
20181;SDS011;10250;50.756;6.172;2023-10-08T07:38:27;13.90;;;3.80;;
20181;SDS011;10250;50.756;6.172;2023-10-08T07:40:28;15.43;;;4.03;;
20181;SDS011;10250;50.756;6.172;2023-10-08T07:42:30;13.43;;;3.50;;
20181;SDS011;10250;50.756;6.172;2023-10-08T07:44:31;15.10;;;3.47;;
20181;SDS011;10250;50.756;6.172;2023-10-08T07:46:35;14.90;;;3.67;;
20181;SDS011;10250;50.756;6.172;2023-10-08T07:48:36;14.37;;;4.30;;
20181;SDS011;10250;50.756;6.172;2023-10-08T07:50:43;15.97;;;4.23;;
20181;SDS011;10250;50.756;6.172;2023-10-08T07:52:45;16.17;;;3.47;;
20181;SDS011;10250;50.756;6.172;2023-10-08T07:54:46;14.87;;;4.00;;
20181;SDS011;10250;50.756;6.172;2023-10-08T07:56:47;15.33;;;3.73;;
20181;SDS011;10250;50.756;6.172;2023-10-08T07:58:49;14.80;;;4.07;;
20181;SDS011;10250;50.756;6.172;2023-10-08T08:00:50;14.73;;;4.00;;
20181;SDS011;10250;50.756;6.172;2023-10-08T08:02:54;15.17;;;3.87;;
20181;SDS011;10250;50.756;6.172;2023-10-08T08:04:55;13.50;;;3.80;;
20181;SDS011;10250;50.756;6.172;2023-10-08T08:06:56;14.67;;;3.80;;
20181;SDS011;10250;50.756;6.172;2023-10-08T08:08:57;12.97;;;3.37;;
20181;SDS011;10250;50.756;6.172;2023-10-08T08:10:57;15.53;;;3.70;;
20181;SDS011;10250;50.756;6.172;2023-10-08T08:13:04;15.70;;;3.57;;
20181;SDS011;10250;50.756;6.172;2023-10-08T08:15:08;18.47;;;3.83;;
20181;SDS011;10250;50.756;6.172;2023-10-08T08:17:15;13.70;;;3.23;;
20181;SDS011;10250;50.756;6.172;2023-10-08T08:19:17;13.77;;;3.83;;
20181;SDS011;10250;50.756;6.172;2023-10-08T08:21:24;17.00;;;4.50;;
20181;SDS011;10250;50.756;6.172;2023-10-08T08:23:25;14.53;;;3.73;;
20181;SDS011;10250;50.756;6.172;2023-10-08T08:25:26;16.03;;;3.87;;
20181;SDS011;10250;50.756;6.172;2023-10-08T08:27:33;15.57;;;4.37;;
20181;SDS011;10250;50.756;6.172;2023-10-08T08:29:35;14.30;;;3.87;;
20181;SDS011;10250;50.756;6.172;2023-10-08T08:31:44;13.93;;;3.43;;
20181;SDS011;10250;50.756;6.172;2023-10-08T08:33:46;15.20;;;4.03;;
20181;SDS011;10250;50.756;6.172;2023-10-08T08:35:59;14.73;;;3.77;;
20181;SDS011;10250;50.756;6.172;2023-10-08T08:38:00;15.27;;;3.80;;
20181;SDS011;10250;50.756;6.172;2023-10-08T08:40:02;16.50;;;3.70;;
20181;SDS011;10250;50.756;6.172;2023-10-08T08:42:09;13.87;;;3.70;;
20181;SDS011;10250;50.756;6.172;2023-10-08T08:44:10;17.17;;;4.00;;
20181;SDS011;10250;50.756;6.172;2023-10-08T08:46:13;15.17;;;4.00;;
20181;SDS011;10250;50.756;6.172;2023-10-08T08:48:14;15.70;;;3.93;;
20181;SDS011;10250;50.756;6.172;2023-10-08T08:50:18;14.17;;;4.00;;
20181;SDS011;10250;50.756;6.172;2023-10-08T08:52:21;14.63;;;4.43;;
20181;SDS011;10250;50.756;6.172;2023-10-08T08:54:22;17.07;;;4.40;;
20181;SDS011;10250;50.756;6.172;2023-10-08T08:56:24;14.67;;;4.00;;
20181;SDS011;10250;50.756;6.172;2023-10-08T08:58:25;14.53;;;3.60;;
20181;SDS011;10250;50.756;6.172;2023-10-08T09:00:26;14.97;;;4.20;;
20181;SDS011;10250;50.756;6.172;2023-10-08T09:02:29;15.33;;;4.00;;
20181;SDS011;10250;50.756;6.172;2023-10-08T09:04:32;15.30;;;3.83;;
20181;SDS011;10250;50.756;6.172;2023-10-08T09:06:36;18.27;;;4.50;;
20181;SDS011;10250;50.756;6.172;2023-10-08T09:08:37;17.37;;;4.80;;
20181;SDS011;10250;50.756;6.172;2023-10-08T09:10:42;14.67;;;4.23;;
20181;SDS011;10250;50.756;6.172;2023-10-08T09:12:52;17.07;;;4.10;;
20181;SDS011;10250;50.756;6.172;2023-10-08T09:14:53;19.17;;;4.10;;
20181;SDS011;10250;50.756;6.172;2023-10-08T09:17:02;16.93;;;4.03;;
20181;SDS011;10250;50.756;6.172;2023-10-08T09:19:05;15.20;;;3.90;;
20181;SDS011;10250;50.756;6.172;2023-10-08T09:21:13;15.30;;;4.30;;
20181;SDS011;10250;50.756;6.172;2023-10-08T09:23:15;15.57;;;4.10;;
20181;SDS011;10250;50.756;6.172;2023-10-08T09:25:22;16.97;;;3.97;;
20181;SDS011;10250;50.756;6.172;2023-10-08T09:27:24;15.33;;;4.10;;
20181;SDS011;10250;50.756;6.172;2023-10-08T09:29:26;15.80;;;4.00;;
20181;SDS011;10250;50.756;6.172;2023-10-08T09:31:27;15.53;;;4.27;;
20181;SDS011;10250;50.756;6.172;2023-10-08T09:33:35;14.70;;;4.03;;
20181;SDS011;10250;50.756;6.172;2023-10-08T09:35:36;15.03;;;4.20;;
20181;SDS011;10250;50.756;6.172;2023-10-08T09:37:37;15.97;;;4.00;;
20181;SDS011;10250;50.756;6.172;2023-10-08T09:39:39;16.10;;;4.43;;
20181;SDS011;10250;50.756;6.172;2023-10-08T09:41:42;16.07;;;4.23;;
20181;SDS011;10250;50.756;6.172;2023-10-08T09:43:44;17.40;;;4.40;;
20181;SDS011;10250;50.756;6.172;2023-10-08T09:45:47;16.33;;;4.57;;
20181;SDS011;10250;50.756;6.172;2023-10-08T09:47:53;16.20;;;3.83;;
20181;SDS011;10250;50.756;6.172;2023-10-08T09:49:57;18.60;;;4.50;;
20181;SDS011;10250;50.756;6.172;2023-10-08T09:52:02;17.07;;;4.63;;
20181;SDS011;10250;50.756;6.172;2023-10-08T09:56:14;14.20;;;4.20;;
20181;SDS011;10250;50.756;6.172;2023-10-08T09:58:15;13.97;;;3.83;;
20181;SDS011;10250;50.756;6.172;2023-10-08T10:00:17;15.87;;;4.70;;
20181;SDS011;10250;50.756;6.172;2023-10-08T10:02:29;16.17;;;4.10;;
20181;SDS011;10250;50.756;6.172;2023-10-08T10:04:31;21.33;;;5.57;;
20181;SDS011;10250;50.756;6.172;2023-10-08T10:06:32;16.97;;;4.57;;
20181;SDS011;10250;50.756;6.172;2023-10-08T10:08:33;15.10;;;4.40;;
20181;SDS011;10250;50.756;6.172;2023-10-08T10:10:36;16.60;;;4.57;;
20181;SDS011;10250;50.756;6.172;2023-10-08T10:12:43;15.67;;;4.30;;
20181;SDS011;10250;50.756;6.172;2023-10-08T10:14:46;16.57;;;4.60;;
20181;SDS011;10250;50.756;6.172;2023-10-08T10:16:48;17.47;;;4.60;;
20181;SDS011;10250;50.756;6.172;2023-10-08T10:19:10;22.23;;;4.63;;
20181;SDS011;10250;50.756;6.172;2023-10-08T10:25:39;16.53;;;4.73;;
20181;SDS011;10250;50.756;6.172;2023-10-08T10:29:51;17.47;;;5.30;;
20181;SDS011;10250;50.756;6.172;2023-10-08T10:31:53;16.00;;;4.70;;
20181;SDS011;10250;50.756;6.172;2023-10-08T10:33:54;17.53;;;5.27;;
20181;SDS011;10250;50.756;6.172;2023-10-08T10:35:55;17.83;;;5.10;;
20181;SDS011;10250;50.756;6.172;2023-10-08T10:37:55;16.50;;;5.00;;
20181;SDS011;10250;50.756;6.172;2023-10-08T10:40:03;19.03;;;5.00;;
20181;SDS011;10250;50.756;6.172;2023-10-08T10:42:10;19.67;;;4.97;;
20181;SDS011;10250;50.756;6.172;2023-10-08T10:44:23;17.87;;;5.13;;
20181;SDS011;10250;50.756;6.172;2023-10-08T10:46:25;15.80;;;4.30;;
20181;SDS011;10250;50.756;6.172;2023-10-08T10:48:31;15.83;;;5.10;;
20181;SDS011;10250;50.756;6.172;2023-10-08T10:50:34;15.63;;;4.70;;
20181;SDS011;10250;50.756;6.172;2023-10-08T10:52:39;15.87;;;4.73;;
20181;SDS011;10250;50.756;6.172;2023-10-08T10:54:52;20.83;;;6.17;;
20181;SDS011;10250;50.756;6.172;2023-10-08T10:56:59;16.67;;;4.90;;
20181;SDS011;10250;50.756;6.172;2023-10-08T10:59:09;15.93;;;5.03;;
20181;SDS011;10250;50.756;6.172;2023-10-08T11:01:18;19.10;;;5.13;;
20181;SDS011;10250;50.756;6.172;2023-10-08T11:03:23;15.47;;;4.70;;
20181;SDS011;10250;50.756;6.172;2023-10-08T11:05:24;18.43;;;4.87;;
20181;SDS011;10250;50.756;6.172;2023-10-08T11:07:28;17.73;;;4.97;;
20181;SDS011;10250;50.756;6.172;2023-10-08T11:09:29;18.07;;;4.73;;
20181;SDS011;10250;50.756;6.172;2023-10-08T11:11:36;19.23;;;4.20;;
20181;SDS011;10250;50.756;6.172;2023-10-08T11:13:36;16.73;;;4.70;;
20181;SDS011;10250;50.756;6.172;2023-10-08T11:15:38;19.07;;;4.70;;
20181;SDS011;10250;50.756;6.172;2023-10-08T11:17:40;18.40;;;4.53;;
20181;SDS011;10250;50.756;6.172;2023-10-08T11:19:44;16.30;;;4.60;;
20181;SDS011;10250;50.756;6.172;2023-10-08T11:21:49;16.77;;;4.77;;
20181;SDS011;10250;50.756;6.172;2023-10-08T11:23:51;16.53;;;4.83;;
20181;SDS011;10250;50.756;6.172;2023-10-08T11:26:08;16.47;;;4.63;;
20181;SDS011;10250;50.756;6.172;2023-10-08T11:28:09;18.67;;;4.80;;
20181;SDS011;10250;50.756;6.172;2023-10-08T11:30:12;16.47;;;4.10;;
20181;SDS011;10250;50.756;6.172;2023-10-08T11:32:17;16.27;;;4.63;;
20181;SDS011;10250;50.756;6.172;2023-10-08T11:34:30;18.00;;;4.40;;
20181;SDS011;10250;50.756;6.172;2023-10-08T11:36:37;17.60;;;4.60;;
20181;SDS011;10250;50.756;6.172;2023-10-08T11:38:48;16.23;;;4.40;;
20181;SDS011;10250;50.756;6.172;2023-10-08T11:40:50;18.73;;;4.57;;
20181;SDS011;10250;50.756;6.172;2023-10-08T11:42:56;16.63;;;4.30;;
20181;SDS011;10250;50.756;6.172;2023-10-08T11:44:59;13.80;;;3.90;;
20181;SDS011;10250;50.756;6.172;2023-10-08T11:47:00;17.90;;;4.60;;
20181;SDS011;10250;50.756;6.172;2023-10-08T11:49:11;16.20;;;3.60;;
20181;SDS011;10250;50.756;6.172;2023-10-08T11:51:17;19.23;;;4.57;;
20181;SDS011;10250;50.756;6.172;2023-10-08T11:53:18;15.13;;;3.77;;
20181;SDS011;10250;50.756;6.172;2023-10-08T11:55:22;16.33;;;4.60;;
20181;SDS011;10250;50.756;6.172;2023-10-08T11:57:26;16.40;;;4.03;;
20181;SDS011;10250;50.756;6.172;2023-10-08T11:59:26;17.83;;;3.93;;
20181;SDS011;10250;50.756;6.172;2023-10-08T12:01:29;15.10;;;3.80;;
20181;SDS011;10250;50.756;6.172;2023-10-08T12:03:29;16.77;;;4.27;;
20181;SDS011;10250;50.756;6.172;2023-10-08T12:05:31;17.60;;;4.10;;
20181;SDS011;10250;50.756;6.172;2023-10-08T12:07:34;18.17;;;4.17;;
20181;SDS011;10250;50.756;6.172;2023-10-08T12:09:36;16.17;;;3.77;;
20181;SDS011;10250;50.756;6.172;2023-10-08T12:11:40;18.50;;;4.33;;
20181;SDS011;10250;50.756;6.172;2023-10-08T12:13:41;14.90;;;3.40;;
20181;SDS011;10250;50.756;6.172;2023-10-08T12:15:45;17.67;;;4.07;;
20181;SDS011;10250;50.756;6.172;2023-10-08T12:17:50;18.33;;;4.07;;
20181;SDS011;10250;50.756;6.172;2023-10-08T12:20:19;15.33;;;4.20;;
20181;SDS011;10250;50.756;6.172;2023-10-08T12:22:23;17.33;;;4.07;;
20181;SDS011;10250;50.756;6.172;2023-10-08T12:24:23;15.13;;;3.87;;
20181;SDS011;10250;50.756;6.172;2023-10-08T12:26:24;15.83;;;4.10;;
20181;SDS011;10250;50.756;6.172;2023-10-08T12:28:25;18.93;;;4.30;;
20181;SDS011;10250;50.756;6.172;2023-10-08T12:30:28;16.20;;;4.00;;
20181;SDS011;10250;50.756;6.172;2023-10-08T12:32:30;14.20;;;3.33;;